createdAt,value
2019-02-28T00:02:07.103Z,87.40
2019-02-28T00:07:10.489Z,88.00
2019-02-28T00:12:14.411Z,88.30
2019-02-28T00:17:17.833Z,88.90
2019-02-28T00:22:21.227Z,89.40
2019-02-28T00:27:24.627Z,90.20
2019-02-28T00:32:28.002Z,90.10
2019-02-28T00:37:31.398Z,90.40
2019-02-28T00:42:34.775Z,90.40
2019-02-28T00:47:38.164Z,90.70
2019-02-28T00:52:41.537Z,91.00
2019-02-28T00:57:44.918Z,91.10
2019-02-28T01:02:52.112Z,91.30
2019-02-28T01:07:53.432Z,91.30
2019-02-28T01:12:56.824Z,91.60
2019-02-28T01:18:00.382Z,91.70
2019-02-28T01:23:04.839Z,92.10
2019-02-28T01:28:08.236Z,92.40
2019-02-28T01:33:11.611Z,92.40
2019-02-28T01:38:15.000Z,92.80
2019-02-28T01:43:18.376Z,92.70
2019-02-28T01:48:22.612Z,93.10
2019-02-28T01:53:26.829Z,93.30
2019-02-28T01:58:30.222Z,93.70
2019-02-28T02:03:33.620Z,93.80
2019-02-28T02:08:37.837Z,94.00
2019-02-28T02:13:41.755Z,94.20
2019-02-28T02:18:45.227Z,94.20
2019-02-28T02:23:49.668Z,94.00
2019-02-28T02:28:53.697Z,94.20
2019-02-28T02:33:57.088Z,94.40
2019-02-28T02:39:00.487Z,95.00
2019-02-28T02:44:03.884Z,95.50
2019-02-28T02:49:07.266Z,95.50
2019-02-28T02:54:18.164Z,95.40
2019-02-28T02:59:15.782Z,95.70
2019-02-28T03:04:23.020Z,96.30
2019-02-28T03:09:24.269Z,96.60
2019-02-28T03:14:27.657Z,97.20
2019-02-28T03:19:33.537Z,97.50
2019-02-28T03:24:36.172Z,98.00
2019-02-28T03:29:43.295Z,98.30
2019-02-28T03:34:55.431Z,98.90
2019-02-28T03:39:49.772Z,98.50
2019-02-28T03:44:56.961Z,98.60
2019-02-28T03:49:58.265Z,98.60
2019-02-28T03:55:03.399Z,99.10
2019-02-28T04:00:23.325Z,98.80
2019-02-28T04:05:28.022Z,99.60
2019-02-28T04:10:31.689Z,99.90
2019-02-28T04:15:35.080Z,99.90
2019-02-28T04:20:38.552Z,99.90
2019-02-28T04:25:41.931Z,99.90
2019-02-28T04:30:45.323Z,99.90
2019-02-28T04:35:48.709Z,99.90
2019-02-28T04:40:52.095Z,99.90
2019-02-28T04:45:57.629Z,99.90
2019-02-28T04:51:02.260Z,99.90
2019-02-28T04:56:11.182Z,99.90
2019-02-28T05:01:12.389Z,99.90
2019-02-28T05:06:18.359Z,99.90
2019-02-28T05:11:21.138Z,99.90
2019-02-28T05:16:24.528Z,99.90
2019-02-28T05:21:27.916Z,99.90
2019-02-28T05:26:31.300Z,99.90
2019-02-28T05:31:34.683Z,99.90
2019-02-28T05:36:38.823Z,99.90
2019-02-28T05:41:42.263Z,99.90
2019-02-28T05:46:45.643Z,99.90
2019-02-28T05:51:49.043Z,99.90
2019-02-28T05:56:52.438Z,99.90
2019-02-28T06:01:55.840Z,99.90
2019-02-28T06:06:59.231Z,99.90
2019-02-28T06:12:02.636Z,99.90
2019-02-28T06:17:06.028Z,99.90
2019-02-28T06:22:09.415Z,99.90
2019-02-28T06:27:12.791Z,99.90
2019-02-28T06:32:16.168Z,99.90
2019-02-28T06:37:19.573Z,99.90
2019-02-28T06:42:22.968Z,99.90
2019-02-28T06:47:26.341Z,99.90
2019-02-28T06:52:29.791Z,99.90
2019-02-28T06:57:33.179Z,99.90
2019-02-28T07:02:36.579Z,99.90
2019-02-28T07:07:39.963Z,99.90
2019-02-28T07:12:43.363Z,99.90
2019-02-28T07:17:47.606Z,99.90
2019-02-28T07:22:54.603Z,99.90
2019-02-28T07:27:56.100Z,99.90
2019-02-28T07:32:59.507Z,99.90
2019-02-28T07:38:02.953Z,99.90
2019-02-28T07:43:12.059Z,99.90
2019-02-28T07:48:11.439Z,99.90
2019-02-28T07:53:14.825Z,99.90
2019-02-28T07:58:18.209Z,99.90
2019-02-28T08:03:21.603Z,99.90
2019-02-28T08:08:26.493Z,99.90
2019-02-28T08:13:30.089Z,99.90
2019-02-28T08:18:33.471Z,99.90
2019-02-28T08:23:37.544Z,99.90
2019-02-28T08:28:41.552Z,99.90
2019-02-28T08:33:48.048Z,99.90
2019-02-28T08:38:50.031Z,99.90
2019-02-28T08:43:53.408Z,99.90
2019-02-28T08:48:56.784Z,99.90
2019-02-28T08:54:00.159Z,99.90
2019-02-28T08:59:11.538Z,99.90
2019-02-28T09:04:08.722Z,99.90
2019-02-28T09:09:12.366Z,99.90
2019-02-28T09:14:17.808Z,99.90
2019-02-28T09:19:20.844Z,99.90
2019-02-28T09:24:25.934Z,99.90
2019-02-28T09:29:29.500Z,99.90
2019-02-28T09:34:32.906Z,99.90
2019-02-28T09:39:36.291Z,99.90
2019-02-28T09:44:39.677Z,99.90
2019-02-28T09:49:44.286Z,99.90
2019-02-28T09:54:48.207Z,99.40
2019-02-28T09:59:51.592Z,92.20
2019-02-28T10:04:54.996Z,87.70
2019-02-28T10:09:58.399Z,77.70
2019-02-28T10:15:07.301Z,76.40
2019-02-28T10:20:09.998Z,80.00
2019-02-28T10:25:14.619Z,80.60
2019-02-28T10:30:30.751Z,83.60
2019-02-28T10:35:26.272Z,79.50
2019-02-28T10:40:30.707Z,79.20
2019-02-28T10:45:34.099Z,74.90
2019-02-28T10:50:38.624Z,76.30
2019-02-28T10:55:42.247Z,72.90
2019-02-28T11:00:46.258Z,77.40
2019-02-28T11:05:53.033Z,75.10
2019-02-28T11:10:54.835Z,75.10
2019-02-28T11:15:58.217Z,75.50
2019-02-28T11:21:01.599Z,75.20
2019-02-28T11:26:06.409Z,73.60
2019-02-28T11:31:11.229Z,68.80
2019-02-28T11:36:14.711Z,66.10
2019-02-28T11:41:18.562Z,69.90
2019-02-28T11:46:22.978Z,62.90
2019-02-28T11:51:26.375Z,62.20
2019-02-28T11:56:29.774Z,59.90
2019-02-28T12:01:33.171Z,64.70
2019-02-28T12:06:36.771Z,59.80
2019-02-28T12:11:40.219Z,61.00
2019-02-28T12:16:44.094Z,58.80
2019-02-28T12:21:47.634Z,56.60
2019-02-28T12:26:52.579Z,56.60
2019-02-28T12:31:56.115Z,58.90
2019-02-28T12:37:00.001Z,61.00
2019-02-28T12:42:03.375Z,59.30
2019-02-28T12:47:07.397Z,58.20
2019-02-28T12:52:11.301Z,53.50
2019-02-28T12:57:15.925Z,57.90
2019-02-28T13:02:19.322Z,56.60
2019-02-28T13:07:22.704Z,55.50
2019-02-28T13:12:26.096Z,58.10
2019-02-28T13:17:31.688Z,56.70
2019-02-28T13:22:34.600Z,53.00
2019-02-28T13:27:38.051Z,54.60
2019-02-28T13:32:41.586Z,57.50
2019-02-28T13:37:45.048Z,55.00
2019-02-28T13:42:48.503Z,55.40
2019-02-28T13:47:51.889Z,54.20
2019-02-28T13:52:55.456Z,53.80
2019-02-28T13:57:58.916Z,53.80
2019-02-28T14:03:09.632Z,54.20
2019-02-28T14:08:13.218Z,55.10
2019-02-28T14:13:16.603Z,51.50
2019-02-28T14:18:19.987Z,52.40
2019-02-28T14:23:23.448Z,55.50
2019-02-28T14:28:26.839Z,50.60
2019-02-28T14:33:30.236Z,53.60
2019-02-28T14:38:33.822Z,52.60
2019-02-28T14:43:37.169Z,54.30
2019-02-28T14:48:40.784Z,53.10
2019-02-28T14:53:45.434Z,50.20
2019-02-28T14:58:49.359Z,51.90
2019-02-28T15:03:52.751Z,50.60
2019-02-28T15:08:56.143Z,51.00
2019-02-28T15:13:59.539Z,51.90
2019-02-28T15:19:02.932Z,51.50
2019-02-28T15:24:08.554Z,51.40
2019-02-28T15:29:11.425Z,54.20
2019-02-28T15:34:14.852Z,55.20
2019-02-28T15:39:18.455Z,52.90
2019-02-28T15:44:21.891Z,53.00
2019-02-28T15:49:25.287Z,53.50
2019-02-28T15:54:28.748Z,54.70
2019-02-28T15:59:32.207Z,57.40
2019-02-28T16:04:35.589Z,57.20
2019-02-28T16:09:38.970Z,56.40
2019-02-28T16:14:42.374Z,57.40
2019-02-28T16:19:45.768Z,56.30
2019-02-28T16:24:49.151Z,54.90
2019-02-28T16:29:55.610Z,55.30
2019-02-28T16:34:57.661Z,56.20
2019-02-28T16:40:01.055Z,57.00
2019-02-28T16:45:07.325Z,56.70
2019-02-28T16:50:11.636Z,57.20
2019-02-28T16:55:15.095Z,58.10
2019-02-28T17:00:18.544Z,58.20
2019-02-28T17:05:26.633Z,58.40
2019-02-28T17:10:28.900Z,58.30
2019-02-28T17:15:42.599Z,58.50
2019-02-28T17:20:46.052Z,58.70
2019-02-28T17:25:49.455Z,58.80
2019-02-28T17:31:03.524Z,59.30
2019-02-28T17:36:08.447Z,59.10
2019-02-28T17:41:12.091Z,59.60
2019-02-28T17:46:16.411Z,59.70
2019-02-28T17:51:22.875Z,59.80
2019-02-28T17:56:40.815Z,60.10
2019-02-28T18:01:53.491Z,60.50
2019-02-28T18:07:09.135Z,60.70
2019-02-28T18:12:21.555Z,61.10
2019-02-28T18:17:39.707Z,61.40
2019-02-28T18:22:51.526Z,61.80
2019-02-28T18:28:02.512Z,62.00
2019-02-28T18:33:06.708Z,62.20
2019-02-28T18:38:11.147Z,62.80
2019-02-28T18:43:14.536Z,63.20
2019-02-28T18:48:18.719Z,63.40
2019-02-28T18:53:22.136Z,63.50
2019-02-28T18:58:25.533Z,63.60
2019-02-28T19:03:28.935Z,63.90
2019-02-28T19:08:32.324Z,64.20
2019-02-28T19:13:35.944Z,64.90
2019-02-28T19:18:39.368Z,65.20
2019-02-28T19:23:42.744Z,65.60
2019-02-28T19:28:46.130Z,66.00
2019-02-28T19:33:49.523Z,66.30
2019-02-28T19:38:52.921Z,66.60
2019-02-28T19:43:56.315Z,66.60
2019-02-28T19:48:59.705Z,67.10
2019-02-28T19:54:03.087Z,67.50
2019-02-28T19:59:06.468Z,67.60
2019-02-28T20:04:09.855Z,68.00
2019-02-28T20:09:13.245Z,68.60
2019-02-28T20:14:17.487Z,68.60
2019-02-28T20:19:20.869Z,69.00
2019-02-28T20:29:26.694Z,69.30
2019-02-28T20:34:30.125Z,69.90
2019-02-28T20:39:33.527Z,69.60
2019-02-28T20:44:36.907Z,69.70
2019-02-28T20:49:40.379Z,69.70
2019-02-28T20:54:43.812Z,70.00
2019-02-28T20:59:47.204Z,69.60
2019-02-28T21:04:50.595Z,69.50
2019-02-28T21:09:53.988Z,69.80
2019-02-28T21:14:57.447Z,69.70
2019-02-28T21:20:00.839Z,69.80
2019-02-28T21:25:06.857Z,69.80
2019-02-28T21:30:16.055Z,69.80
2019-02-28T21:35:19.683Z,69.90
2019-02-28T21:40:23.897Z,70.20
2019-02-28T21:45:28.419Z,70.00
2019-02-28T21:50:31.844Z,70.60
2019-02-28T21:55:35.240Z,70.50
2019-02-28T22:00:38.629Z,70.90
2019-02-28T22:05:42.013Z,71.60
2019-02-28T22:10:45.396Z,71.70
2019-02-28T22:15:48.788Z,72.00
2019-02-28T22:20:52.192Z,72.10
2019-02-28T22:25:55.572Z,72.40
2019-02-28T22:31:00.604Z,72.40
2019-02-28T22:36:05.697Z,73.20
2019-02-28T22:41:09.169Z,73.30
2019-02-28T22:46:12.595Z,73.20
2019-02-28T22:51:15.975Z,74.00
2019-02-28T22:56:19.359Z,73.70
2019-02-28T23:01:25.152Z,73.50
2019-02-28T23:06:28.546Z,73.80
2019-02-28T23:11:31.948Z,74.40
2019-02-28T23:16:35.352Z,74.40
2019-02-28T23:21:38.731Z,74.40
2019-02-28T23:27:07.527Z,75.10
2019-02-28T23:32:25.659Z,76.30
2019-02-28T23:37:29.051Z,76.60
2019-02-28T23:42:32.424Z,76.40
2019-02-28T23:47:35.813Z,76.90
2019-02-28T23:52:39.199Z,77.40
2019-02-28T23:57:42.576Z,77.60
